Clearmont, Wyoming
Current Conditions -  °F | °C
As of 8:53 PM on Sunday 23 Nov 2014 (Local Time) from KBYG Reporting Station
Clear Clear  
Wind Chill: 23°   Ceiling: Unl
Heat Index: 33°   Visibility: 10mi
Dew Point:   Wind: 15mph
Humidity: 34%   Direction: 310°NW
Pressure: 29.82"   Gusts: NA
Location:  44.64°N, 106.38°W
Report Text: KBYG 240353Z AUTO 31013KT 10SM CLR 01/M14 A2982 RMK AO2 SLP110 T00061139 $
Loading
Personal Weather Stations






























Interactive Weather Map New forecast layout! Learn more

10-Day Weather Forecast

Advertisements
Track Severe Weather on mobile